EZS67CP EDDB-LFSB
Flight info
| Callsign | EZS67CP |
|---|---|
| Flight time | 1h 14m |
| Altitude | 30000 |
| Route | KISUC1Q/06R KISUC Z20 MAG Z115 ORTAG/N0421F310 DCT BAMKI/N0415F300 DCT IBAGA DCT DKB DCT TEDGO/N0369F240 T716 DENEL/N0366F230 T715 RIGVI |
| Aircraft | A320/M-SDE2E3FGHIJ1RWXYZ/LB1 |
Departure
| Time | 2026-05-05 15:24 |
|---|---|
| Airport | Berlin Brandenburg Airport (EDDB) |
Arrival
| Time | 2026-05-05 16:39 |
|---|---|
| Airport | EuroAirport Basel–Mulhouse–Freiburg (LFSB) |
| Time | Latitude | Longitude | Altitude | Speed | Heading |
|---|---|---|---|---|---|
| 2026-05-05 14:50 | 52.36110 | 13.51237 | 155 ft | 0 kts | 339° |
| 2026-05-05 15:11 | 52.36108 | 13.51238 | 155 ft | 3 kts | 339° |
| 2026-05-05 15:11 | 52.36083 | 13.51254 | 155 ft | 4 kts | 339° |
| 2026-05-05 15:11 | 52.36063 | 13.51266 | 155 ft | 4 kts | 338° |
| 2026-05-05 15:11 | 52.36042 | 13.51289 | 155 ft | 4 kts | 301° |
| 2026-05-05 15:12 | 52.36036 | 13.51324 | 155 ft | 2 kts | 250° |
| 2026-05-05 15:12 | 52.36037 | 13.51328 | 155 ft | 0 kts | 249° |
| 2026-05-05 15:15 | 52.36034 | 13.51315 | 154 ft | 5 kts | 249° |
| 2026-05-05 15:15 | 52.36014 | 13.51230 | 158 ft | 9 kts | 249° |
| 2026-05-05 15:16 | 52.35992 | 13.51140 | 154 ft | 8 kts | 249° |
| 2026-05-05 15:16 | 52.35974 | 13.51061 | 154 ft | 9 kts | 249° |
| 2026-05-05 15:16 | 52.35943 | 13.50931 | 154 ft | 13 kts | 248° |
| 2026-05-05 15:16 | 52.35912 | 13.50805 | 154 ft | 11 kts | 248° |
| 2026-05-05 15:17 | 52.35886 | 13.50698 | 154 ft | 6 kts | 248° |
| 2026-05-05 15:17 | 52.35881 | 13.50674 | 154 ft | 0 kts | 248° |
| 2026-05-05 15:17 | 52.35868 | 13.50645 | 154 ft | 6 kts | 227° |
| 2026-05-05 15:17 | 52.35843 | 13.50625 | 154 ft | 3 kts | 190° |
| 2026-05-05 15:18 | 52.35824 | 13.50632 | 154 ft | 4 kts | 166° |
| 2026-05-05 15:18 | 52.35781 | 13.50624 | 154 ft | 7 kts | 213° |
| 2026-05-05 15:18 | 52.35760 | 13.50566 | 154 ft | 5 kts | 246° |
| 2026-05-05 15:18 | 52.35740 | 13.50484 | 154 ft | 12 kts | 249° |
| 2026-05-05 15:19 | 52.35703 | 13.50332 | 154 ft | 15 kts | 248° |
| 2026-05-05 15:19 | 52.35669 | 13.50185 | 154 ft | 13 kts | 249° |
| 2026-05-05 15:19 | 52.35630 | 13.50022 | 154 ft | 19 kts | 249° |
| 2026-05-05 15:19 | 52.35579 | 13.49806 | 154 ft | 21 kts | 249° |
| 2026-05-05 15:20 | 52.35529 | 13.49597 | 156 ft | 19 kts | 249° |
| 2026-05-05 15:20 | 52.35485 | 13.49409 | 154 ft | 17 kts | 249° |
| 2026-05-05 15:20 | 52.35443 | 13.49233 | 154 ft | 16 kts | 250° |
| 2026-05-05 15:20 | 52.35404 | 13.49070 | 154 ft | 17 kts | 249° |
| 2026-05-05 15:21 | 52.35353 | 13.48853 | 154 ft | 24 kts | 249° |
| 2026-05-05 15:21 | 52.35293 | 13.48603 | 154 ft | 24 kts | 249° |
| 2026-05-05 15:21 | 52.35227 | 13.48324 | 154 ft | 29 kts | 249° |
| 2026-05-05 15:21 | 52.35152 | 13.48010 | 154 ft | 30 kts | 249° |
| 2026-05-05 15:22 | 52.35076 | 13.47689 | 154 ft | 30 kts | 249° |
| 2026-05-05 15:22 | 52.35001 | 13.47373 | 154 ft | 29 kts | 249° |
| 2026-05-05 15:22 | 52.34927 | 13.47061 | 154 ft | 30 kts | 249° |
| 2026-05-05 15:22 | 52.34857 | 13.46765 | 154 ft | 19 kts | 249° |
| 2026-05-05 15:23 | 52.34787 | 13.46723 | 154 ft | 12 kts | 161° |
| 2026-05-05 15:23 | 52.34685 | 13.46788 | 154 ft | 18 kts | 158° |
| 2026-05-05 15:23 | 52.34577 | 13.46878 | 154 ft | 16 kts | 116° |
| 2026-05-05 15:23 | 52.34597 | 13.47072 | 154 ft | 27 kts | 69° |
| 2026-05-05 15:24 | 52.34747 | 13.47698 | 154 ft | 90 kts | 69° |
| 2026-05-05 15:24 | 52.35044 | 13.48952 | 155 ft | 144 kts | 69° |
| 2026-05-05 15:24 | 52.35445 | 13.50658 | 411 ft | 165 kts | 71° |
| 2026-05-05 15:24 | 52.35585 | 13.52500 | 1138 ft | 168 kts | 100° |
| 2026-05-05 15:25 | 52.34999 | 13.54201 | 1620 ft | 185 kts | 128° |
| 2026-05-05 15:25 | 52.34012 | 13.55728 | 1914 ft | 206 kts | 152° |
| 2026-05-05 15:25 | 52.32586 | 13.56032 | 2455 ft | 218 kts | 196° |
| 2026-05-05 15:25 | 52.31226 | 13.54782 | 2954 ft | 232 kts | 218° |
| 2026-05-05 15:26 | 52.29941 | 13.53058 | 3491 ft | 250 kts | 221° |
| 2026-05-05 15:26 | 52.28580 | 13.51130 | 4076 ft | 264 kts | 222° |
| 2026-05-05 15:26 | 52.27220 | 13.49040 | 4965 ft | 266 kts | 233° |
| 2026-05-05 15:26 | 52.26426 | 13.46376 | 5830 ft | 266 kts | 257° |
| 2026-05-05 15:27 | 52.26288 | 13.43354 | 6671 ft | 269 kts | 270° |
| 2026-05-05 15:27 | 52.26293 | 13.40286 | 7490 ft | 272 kts | 270° |
| 2026-05-05 15:27 | 52.26298 | 13.37138 | 8329 ft | 275 kts | 270° |
| 2026-05-05 15:27 | 52.26300 | 13.34049 | 9172 ft | 277 kts | 269° |
| 2026-05-05 15:28 | 52.26298 | 13.30844 | 9971 ft | 280 kts | 269° |
| 2026-05-05 15:28 | 52.26294 | 13.27642 | 10719 ft | 283 kts | 269° |
| 2026-05-05 15:28 | 52.26255 | 13.24458 | 11472 ft | 285 kts | 263° |
| 2026-05-05 15:28 | 52.25811 | 13.21254 | 12182 ft | 290 kts | 249° |
| 2026-05-05 15:29 | 52.24887 | 13.18250 | 12374 ft | 312 kts | 239° |
| 2026-05-05 15:29 | 52.23714 | 13.15113 | 12791 ft | 325 kts | 238° |
| 2026-05-05 15:29 | 52.22524 | 13.11951 | 13455 ft | 329 kts | 238° |
| 2026-05-05 15:29 | 52.21321 | 13.08750 | 14109 ft | 333 kts | 238° |
| 2026-05-05 15:30 | 52.20121 | 13.05564 | 14748 ft | 335 kts | 238° |
| 2026-05-05 15:30 | 52.18903 | 13.02316 | 15407 ft | 337 kts | 239° |
| 2026-05-05 15:30 | 52.17681 | 12.99047 | 16050 ft | 339 kts | 239° |
| 2026-05-05 15:30 | 52.16570 | 12.95651 | 16680 ft | 342 kts | 248° |
| 2026-05-05 15:31 | 52.15883 | 12.91937 | 17314 ft | 344 kts | 257° |
| 2026-05-05 15:31 | 52.15360 | 12.88113 | 17954 ft | 347 kts | 256° |
| 2026-05-05 15:31 | 52.14823 | 12.84262 | 18475 ft | 351 kts | 256° |
| 2026-05-05 15:31 | 52.14274 | 12.80380 | 19000 ft | 353 kts | 256° |
| 2026-05-05 15:32 | 52.13715 | 12.76467 | 19540 ft | 356 kts | 256° |
| 2026-05-05 15:32 | 52.13158 | 12.72583 | 20064 ft | 359 kts | 256° |
| 2026-05-05 15:32 | 52.12582 | 12.68561 | 20613 ft | 361 kts | 256° |
| 2026-05-05 15:32 | 52.12010 | 12.64571 | 21142 ft | 364 kts | 255° |
| 2026-05-05 15:33 | 52.11434 | 12.60557 | 21680 ft | 366 kts | 255° |
| 2026-05-05 15:33 | 52.10851 | 12.56510 | 22229 ft | 369 kts | 255° |
| 2026-05-05 15:33 | 52.10265 | 12.52436 | 22763 ft | 371 kts | 255° |
| 2026-05-05 15:33 | 52.09676 | 12.48338 | 23252 ft | 374 kts | 255° |
| 2026-05-05 15:34 | 52.09078 | 12.44194 | 23684 ft | 378 kts | 255° |
| 2026-05-05 15:34 | 52.08475 | 12.40024 | 24114 ft | 380 kts | 255° |
| 2026-05-05 15:34 | 52.07868 | 12.35839 | 24547 ft | 381 kts | 255° |
| 2026-05-05 15:34 | 52.07256 | 12.31639 | 25000 ft | 382 kts | 255° |
| 2026-05-05 15:35 | 52.06639 | 12.27427 | 25428 ft | 383 kts | 255° |
| 2026-05-05 15:35 | 52.06019 | 12.23208 | 25848 ft | 385 kts | 255° |
| 2026-05-05 15:35 | 52.05395 | 12.18984 | 26257 ft | 386 kts | 255° |
| 2026-05-05 15:35 | 52.04771 | 12.14739 | 26664 ft | 387 kts | 255° |
| 2026-05-05 15:36 | 52.04145 | 12.10481 | 27062 ft | 388 kts | 255° |
| 2026-05-05 15:36 | 52.03514 | 12.06221 | 27459 ft | 389 kts | 255° |
| 2026-05-05 15:36 | 52.02878 | 12.01944 | 27842 ft | 390 kts | 255° |
| 2026-05-05 15:36 | 52.02239 | 11.97658 | 28222 ft | 391 kts | 255° |
| 2026-05-05 15:37 | 52.01595 | 11.93358 | 28592 ft | 392 kts | 255° |
| 2026-05-05 15:37 | 52.00952 | 11.89063 | 28962 ft | 394 kts | 255° |
| 2026-05-05 15:37 | 52.00295 | 11.84729 | 29301 ft | 395 kts | 253° |
| 2026-05-05 15:37 | 51.99353 | 11.80561 | 29651 ft | 394 kts | 243° |
| 2026-05-05 15:38 | 51.97970 | 11.76719 | 29840 ft | 393 kts | 234° |
| 2026-05-05 15:38 | 51.96275 | 11.73363 | 29865 ft | 377 kts | 230° |
| 2026-05-05 15:38 | 51.94586 | 11.70208 | 29866 ft | 367 kts | 230° |
| 2026-05-05 15:39 | 51.91262 | 11.63983 | 29867 ft | 365 kts | 230° |
| 2026-05-05 15:39 | 51.87940 | 11.57774 | 29867 ft | 365 kts | 229° |
| 2026-05-05 15:40 | 51.84616 | 11.51585 | 29863 ft | 365 kts | 229° |
| 2026-05-05 15:40 | 51.81283 | 11.45385 | 29866 ft | 365 kts | 229° |
| 2026-05-05 15:41 | 51.77949 | 11.39201 | 29864 ft | 365 kts | 229° |
| 2026-05-05 15:41 | 51.74060 | 11.33981 | 29863 ft | 367 kts | 214° |
| 2026-05-05 15:42 | 51.69751 | 11.29555 | 29842 ft | 368 kts | 213° |
| 2026-05-05 15:42 | 51.65428 | 11.25111 | 29837 ft | 369 kts | 213° |
| 2026-05-05 15:43 | 51.61097 | 11.20671 | 29832 ft | 369 kts | 213° |
| 2026-05-05 15:43 | 51.56759 | 11.16226 | 29833 ft | 370 kts | 213° |
| 2026-05-05 15:44 | 51.52416 | 11.11787 | 29857 ft | 370 kts | 213° |
| 2026-05-05 15:44 | 51.47776 | 11.08310 | 29844 ft | 371 kts | 195° |
| 2026-05-05 15:45 | 51.42618 | 11.07494 | 30013 ft | 374 kts | 185° |
| 2026-05-05 15:45 | 51.40016 | 11.07302 | 30256 ft | 374 kts | 185° |
| 2026-05-05 15:45 | 51.37416 | 11.07108 | 30483 ft | 374 kts | 186° |
| 2026-05-05 15:45 | 51.34813 | 11.06911 | 30723 ft | 374 kts | 186° |
| 2026-05-05 15:46 | 51.32220 | 11.06711 | 30816 ft | 374 kts | 186° |
| 2026-05-05 15:46 | 51.27027 | 11.06295 | 30825 ft | 373 kts | 186° |
| 2026-05-05 15:47 | 51.21856 | 11.05873 | 30836 ft | 372 kts | 185° |
| 2026-05-05 15:47 | 51.16686 | 11.05461 | 30836 ft | 372 kts | 185° |
| 2026-05-05 15:48 | 51.11517 | 11.05066 | 30838 ft | 372 kts | 185° |
| 2026-05-05 15:48 | 51.06351 | 11.04671 | 30841 ft | 372 kts | 185° |
| 2026-05-05 15:49 | 51.01187 | 11.04269 | 30837 ft | 371 kts | 185° |
| 2026-05-05 15:49 | 50.96041 | 11.03873 | 30838 ft | 370 kts | 185° |
| 2026-05-05 15:50 | 50.90890 | 11.03478 | 30837 ft | 370 kts | 185° |
| 2026-05-05 15:50 | 50.85745 | 11.03086 | 30835 ft | 370 kts | 185° |
| 2026-05-05 15:51 | 50.80598 | 11.02690 | 30826 ft | 370 kts | 184° |
| 2026-05-05 15:51 | 50.75406 | 11.02290 | 30825 ft | 376 kts | 184° |
| 2026-05-05 15:52 | 50.70215 | 11.01278 | 30506 ft | 376 kts | 197° |
| 2026-05-05 15:52 | 50.67751 | 11.00084 | 30264 ft | 377 kts | 198° |
| 2026-05-05 15:52 | 50.65242 | 10.98864 | 30017 ft | 377 kts | 198° |
| 2026-05-05 15:52 | 50.62733 | 10.97646 | 29807 ft | 378 kts | 197° |
| 2026-05-05 15:53 | 50.60214 | 10.96430 | 29797 ft | 379 kts | 197° |
| 2026-05-05 15:53 | 50.55170 | 10.94005 | 29810 ft | 379 kts | 197° |
| 2026-05-05 15:54 | 50.50122 | 10.91591 | 29805 ft | 379 kts | 197° |
| 2026-05-05 15:54 | 50.45079 | 10.89185 | 29804 ft | 379 kts | 197° |
| 2026-05-05 15:55 | 50.40850 | 10.87171 | 29799 ft | 379 kts | 197° |
| 2026-05-05 15:55 | 50.35838 | 10.84791 | 29788 ft | 379 kts | 197° |
| 2026-05-05 15:56 | 50.30796 | 10.82398 | 29788 ft | 379 kts | 197° |
| 2026-05-05 15:56 | 50.25720 | 10.79994 | 29780 ft | 379 kts | 197° |
| 2026-05-05 15:57 | 50.20674 | 10.77609 | 29782 ft | 379 kts | 197° |
| 2026-05-05 15:57 | 50.15604 | 10.75215 | 29786 ft | 381 kts | 197° |
| 2026-05-05 15:58 | 50.10568 | 10.72847 | 29771 ft | 377 kts | 196° |
| 2026-05-05 15:58 | 50.05544 | 10.70493 | 29768 ft | 377 kts | 196° |
| 2026-05-05 15:59 | 50.00547 | 10.68147 | 29767 ft | 378 kts | 196° |
| 2026-05-05 15:59 | 49.95475 | 10.65773 | 29768 ft | 378 kts | 196° |
| 2026-05-05 16:00 | 49.90462 | 10.63437 | 29776 ft | 379 kts | 195° |
| 2026-05-05 16:00 | 49.85399 | 10.61079 | 29780 ft | 381 kts | 195° |
| 2026-05-05 16:01 | 49.80314 | 10.58726 | 29781 ft | 380 kts | 195° |
| 2026-05-05 16:01 | 49.75260 | 10.56388 | 29789 ft | 379 kts | 195° |
| 2026-05-05 16:02 | 49.70247 | 10.53885 | 29797 ft | 379 kts | 198° |
| 2026-05-05 16:02 | 49.65273 | 10.51128 | 29804 ft | 381 kts | 198° |
| 2026-05-05 16:03 | 49.60270 | 10.48353 | 29821 ft | 383 kts | 198° |
| 2026-05-05 16:03 | 49.55243 | 10.45628 | 29832 ft | 383 kts | 198° |
| 2026-05-05 16:04 | 49.50217 | 10.42944 | 29815 ft | 381 kts | 198° |
| 2026-05-05 16:04 | 49.45200 | 10.40261 | 29820 ft | 383 kts | 198° |
| 2026-05-05 16:05 | 49.40164 | 10.37569 | 29818 ft | 384 kts | 198° |
| 2026-05-05 16:05 | 49.35108 | 10.34871 | 29824 ft | 385 kts | 198° |
| 2026-05-05 16:06 | 49.30048 | 10.32182 | 29825 ft | 385 kts | 198° |
| 2026-05-05 16:06 | 49.24981 | 10.29502 | 29848 ft | 385 kts | 197° |
| 2026-05-05 16:07 | 49.19913 | 10.26827 | 29859 ft | 385 kts | 197° |
| 2026-05-05 16:07 | 49.15015 | 10.23541 | 29851 ft | 388 kts | 211° |
| 2026-05-05 16:08 | 49.11111 | 10.17810 | 29868 ft | 394 kts | 228° |
| 2026-05-05 16:08 | 49.07674 | 10.11274 | 29859 ft | 395 kts | 227° |
| 2026-05-05 16:09 | 49.04223 | 10.04755 | 29864 ft | 395 kts | 227° |
| 2026-05-05 16:09 | 49.00763 | 9.98262 | 29868 ft | 395 kts | 227° |
| 2026-05-05 16:10 | 48.97314 | 9.91764 | 29862 ft | 394 kts | 227° |
| 2026-05-05 16:10 | 48.93867 | 9.85286 | 29859 ft | 394 kts | 227° |
| 2026-05-05 16:11 | 48.90416 | 9.78827 | 29859 ft | 394 kts | 227° |
| 2026-05-05 16:12 | 48.83500 | 9.65935 | 29861 ft | 393 kts | 227° |
| 2026-05-05 16:13 | 48.74835 | 9.49837 | 29840 ft | 394 kts | 227° |
| 2026-05-05 16:13 | 48.71351 | 9.43425 | 29839 ft | 394 kts | 227° |
| 2026-05-05 16:14 | 48.64388 | 9.30603 | 29836 ft | 394 kts | 228° |
| 2026-05-05 16:15 | 48.61702 | 9.23369 | 29827 ft | 401 kts | 248° |
| 2026-05-05 16:15 | 48.60538 | 9.15128 | 29512 ft | 396 kts | 256° |
| 2026-05-05 16:16 | 48.59559 | 9.07061 | 28975 ft | 386 kts | 256° |
| 2026-05-05 16:16 | 48.58579 | 8.99129 | 28422 ft | 382 kts | 256° |
| 2026-05-05 16:17 | 48.57603 | 8.91277 | 27879 ft | 379 kts | 256° |
| 2026-05-05 16:17 | 48.57118 | 8.87379 | 27610 ft | 377 kts | 256° |
| 2026-05-05 16:18 | 48.56151 | 8.79641 | 27082 ft | 373 kts | 256° |
| 2026-05-05 16:18 | 48.55668 | 8.75801 | 26814 ft | 372 kts | 256° |
| 2026-05-05 16:18 | 48.54706 | 8.68164 | 26311 ft | 369 kts | 256° |
| 2026-05-05 16:19 | 48.54227 | 8.64371 | 26069 ft | 367 kts | 257° |
| 2026-05-05 16:19 | 48.53748 | 8.60594 | 25816 ft | 366 kts | 257° |
| 2026-05-05 16:19 | 48.52790 | 8.53080 | 25321 ft | 363 kts | 257° |
| 2026-05-05 16:20 | 48.51838 | 8.45623 | 24832 ft | 360 kts | 257° |
| 2026-05-05 16:20 | 48.50890 | 8.38228 | 24351 ft | 358 kts | 257° |
| 2026-05-05 16:21 | 48.49935 | 8.30892 | 23904 ft | 355 kts | 257° |
| 2026-05-05 16:22 | 48.47717 | 8.20401 | 23332 ft | 349 kts | 240° |
| 2026-05-05 16:22 | 48.45502 | 8.14043 | 22523 ft | 342 kts | 240° |
| 2026-05-05 16:23 | 48.43303 | 8.07741 | 21628 ft | 338 kts | 240° |
| 2026-05-05 16:23 | 48.42209 | 8.04614 | 21176 ft | 337 kts | 240° |
| 2026-05-05 16:23 | 48.40014 | 7.98360 | 20299 ft | 335 kts | 240° |
| 2026-05-05 16:24 | 48.38929 | 7.95262 | 19865 ft | 333 kts | 240° |
| 2026-05-05 16:24 | 48.37750 | 7.92282 | 19423 ft | 331 kts | 230° |
| 2026-05-05 16:24 | 48.34078 | 7.88280 | 18507 ft | 333 kts | 198° |
| 2026-05-05 16:25 | 48.31803 | 7.87581 | 18052 ft | 335 kts | 187° |
| 2026-05-05 16:25 | 48.27160 | 7.86809 | 17158 ft | 336 kts | 187° |
| 2026-05-05 16:25 | 48.24846 | 7.86424 | 16849 ft | 333 kts | 187° |
| 2026-05-05 16:26 | 48.20253 | 7.85654 | 15976 ft | 331 kts | 188° |
| 2026-05-05 16:26 | 48.16081 | 7.83418 | 15320 ft | 319 kts | 223° |
| 2026-05-05 16:27 | 48.14772 | 7.80786 | 15011 ft | 317 kts | 245° |
| 2026-05-05 16:27 | 48.14263 | 7.77591 | 14632 ft | 318 kts | 264° |
| 2026-05-05 16:27 | 48.14134 | 7.74306 | 14048 ft | 315 kts | 264° |
| 2026-05-05 16:27 | 48.14022 | 7.71044 | 13458 ft | 311 kts | 265° |
| 2026-05-05 16:28 | 48.13915 | 7.67863 | 12982 ft | 302 kts | 264° |
| 2026-05-05 16:28 | 48.13805 | 7.64740 | 12447 ft | 297 kts | 264° |
| 2026-05-05 16:28 | 48.13693 | 7.61704 | 12055 ft | 288 kts | 264° |
| 2026-05-05 16:28 | 48.13581 | 7.58711 | 11679 ft | 289 kts | 264° |
| 2026-05-05 16:29 | 48.13462 | 7.55712 | 11300 ft | 288 kts | 262° |
| 2026-05-05 16:29 | 48.12970 | 7.52868 | 10890 ft | 286 kts | 243° |
| 2026-05-05 16:29 | 48.11808 | 7.50476 | 10486 ft | 286 kts | 222° |
| 2026-05-05 16:29 | 48.10160 | 7.48925 | 10334 ft | 277 kts | 203° |
| 2026-05-05 16:30 | 48.08351 | 7.48013 | 10158 ft | 270 kts | 200° |
| 2026-05-05 16:30 | 48.06597 | 7.47165 | 10026 ft | 260 kts | 200° |
| 2026-05-05 16:30 | 48.04910 | 7.46358 | 9909 ft | 250 kts | 200° |
| 2026-05-05 16:30 | 48.03287 | 7.45588 | 9788 ft | 240 kts | 200° |
| 2026-05-05 16:31 | 48.01720 | 7.44847 | 9495 ft | 233 kts | 200° |
| 2026-05-05 16:31 | 48.00179 | 7.44119 | 9022 ft | 231 kts | 200° |
| 2026-05-05 16:31 | 47.98649 | 7.43395 | 8548 ft | 230 kts | 200° |
| 2026-05-05 16:31 | 47.97132 | 7.42678 | 8072 ft | 227 kts | 200° |
| 2026-05-05 16:32 | 47.95634 | 7.41972 | 7637 ft | 225 kts | 200° |
| 2026-05-05 16:32 | 47.94143 | 7.41268 | 7263 ft | 224 kts | 200° |
| 2026-05-05 16:32 | 47.92654 | 7.40566 | 6897 ft | 225 kts | 200° |
| 2026-05-05 16:32 | 47.91162 | 7.39862 | 6526 ft | 226 kts | 200° |
| 2026-05-05 16:33 | 47.89655 | 7.39154 | 6291 ft | 226 kts | 200° |
| 2026-05-05 16:33 | 47.88143 | 7.38444 | 5824 ft | 230 kts | 200° |
| 2026-05-05 16:33 | 47.86616 | 7.37725 | 5423 ft | 230 kts | 200° |
| 2026-05-05 16:33 | 47.85096 | 7.37011 | 5064 ft | 228 kts | 200° |
| 2026-05-05 16:34 | 47.83560 | 7.36504 | 4832 ft | 224 kts | 185° |
| 2026-05-05 16:34 | 47.82034 | 7.36840 | 4783 ft | 225 kts | 164° |
| 2026-05-05 16:34 | 47.80600 | 7.37802 | 4728 ft | 227 kts | 160° |
| 2026-05-05 16:34 | 47.79174 | 7.38808 | 4612 ft | 227 kts | 160° |
| 2026-05-05 16:35 | 47.77748 | 7.39812 | 4341 ft | 226 kts | 159° |
| 2026-05-05 16:35 | 47.76352 | 7.40794 | 4029 ft | 216 kts | 159° |
| 2026-05-05 16:35 | 47.75022 | 7.41728 | 3761 ft | 207 kts | 159° |
| 2026-05-05 16:35 | 47.73754 | 7.42616 | 3538 ft | 197 kts | 159° |
| 2026-05-05 16:36 | 47.72529 | 7.43472 | 3242 ft | 193 kts | 159° |
| 2026-05-05 16:36 | 47.71323 | 7.44315 | 2976 ft | 190 kts | 160° |
| 2026-05-05 16:36 | 47.70537 | 7.44865 | 2815 ft | 186 kts | 160° |
| 2026-05-05 16:36 | 47.69398 | 7.45664 | 2565 ft | 175 kts | 159° |
| 2026-05-05 16:37 | 47.68317 | 7.46418 | 2359 ft | 167 kts | 159° |
| 2026-05-05 16:37 | 47.67315 | 7.47119 | 2141 ft | 153 kts | 159° |
| 2026-05-05 16:37 | 47.66369 | 7.47776 | 1906 ft | 149 kts | 157° |
| 2026-05-05 16:37 | 47.65441 | 7.48442 | 1660 ft | 147 kts | 155° |
| 2026-05-05 16:38 | 47.64518 | 7.49088 | 1489 ft | 146 kts | 158° |
| 2026-05-05 16:38 | 47.63591 | 7.49721 | 1318 ft | 147 kts | 155° |
| 2026-05-05 16:38 | 47.62663 | 7.50382 | 1091 ft | 148 kts | 158° |
| 2026-05-05 16:38 | 47.61742 | 7.51016 | 929 ft | 145 kts | 158° |
| 2026-05-05 16:39 | 47.60892 | 7.51597 | 880 ft | 115 kts | 154° |
| 2026-05-05 16:39 | 47.60324 | 7.51993 | 886 ft | 65 kts | 154° |
| 2026-05-05 16:39 | 47.60133 | 7.52129 | 890 ft | 10 kts | 152° |
| 2026-05-05 16:39 | 47.60121 | 7.52204 | 890 ft | 7 kts | 73° |
| 2026-05-05 16:40 | 47.60137 | 7.52271 | 890 ft | 6 kts | 68° |
| 2026-05-05 16:40 | 47.60154 | 7.52325 | 890 ft | 5 kts | 65° |
| 2026-05-05 16:40 | 47.60162 | 7.52379 | 890 ft | 6 kts | 104° |
| 2026-05-05 16:40 | 47.60119 | 7.52432 | 890 ft | 8 kts | 153° |
| 2026-05-05 16:41 | 47.60070 | 7.52465 | 890 ft | 7 kts | 155° |
| 2026-05-05 16:41 | 47.60024 | 7.52496 | 890 ft | 9 kts | 155° |
| 2026-05-05 16:41 | 47.59949 | 7.52549 | 890 ft | 13 kts | 153° |
| 2026-05-05 16:41 | 47.59860 | 7.52611 | 890 ft | 14 kts | 156° |
| 2026-05-05 16:42 | 47.59759 | 7.52680 | 890 ft | 18 kts | 155° |
| 2026-05-05 16:42 | 47.59648 | 7.52758 | 890 ft | 10 kts | 154° |
| 2026-05-05 16:42 | 47.59617 | 7.52824 | 890 ft | 8 kts | 85° |
| 2026-05-05 16:42 | 47.59647 | 7.52854 | 890 ft | 6 kts | 339° |
| 2026-05-05 16:43 | 47.59680 | 7.52867 | 890 ft | 5 kts | 27° |
| 2026-05-05 16:43 | 47.59712 | 7.52890 | 890 ft | 6 kts | 22° |
| 2026-05-05 16:43 | 47.59725 | 7.52898 | 890 ft | 0 kts | 22° |